Suula — OJKZ — position and weather

sailwx.info

Track history (hours):
 
Tides and Currents Weather Stations Pressure Air Temp Water Temp Dewpoint Dewpoint Depression Visibility Wind Speed Wind Dir Waves Ship Positions

Suula

Last reported at 2014-Jul-22 04:28 UTC. Time now 2014-Jul-22 15:27 UTC.
Position N 60°18' E 025°33'.

Length 140 m; draft 6.5 m.

Type: Tanker. MMSI: 230956996.

Date/timePositionNaut miles runAvg speedWind from/ knotsBaromVisibWave heightAir tempDewpointWater temp
2014-Jul-22 04:28N 60°18' E 025°33'0 0.0
2014-Jul-22 03:34N 60°18' E 025°33'0 0.0
2014-Jul-22 02:30N 60°18' E 025°33'0 0.0
2014-Jul-22 01:30N 60°18' E 025°33'0 0.2
2014-Jul-22 00:33N 60°18' E 025°34'1110.5
2014-Jul-21 23:33N 60°08' E 025°35'39 5.3
2014-Jul-21 16:13N 59°45' E 024°32'1011.3
2014-Jul-21 15:23N 59°42' E 024°14'1011.3
2014-Jul-21 14:29N 59°40' E 023°55'1010.7
2014-Jul-21 13:32N 59°37' E 023°36'1210.7
2014-Jul-21 12:24N 59°33' E 023°13'910.7
2014-Jul-21 11:33N 59°30' E 022°56'1111.0
2014-Jul-21 10:34N 59°26' E 022°35'1211.4
2014-Jul-21 09:32N 59°21' E 022°15'1010.5
2014-Jul-21 08:33N 59°18' E 021°55'1212.0
2014-Jul-21 07:34N 59°15' E 021°33'1212.1
2014-Jul-21 06:33N 59°11' E 021°10'  
2014-Jul-18 05:29N 59°34' E 022°48'1313.6
2014-Jul-18 04:31N 59°38' E 023°12'1313.5
2014-Jul-18 03:33N 59°41' E 023°37'1413.4
2014-Jul-18 02:33N 59°45' E 024°03'2713.5
2014-Jul-18 00:33N 59°51' E 024°55'1313.3
2014-Jul-17 23:33N 59°56' E 025°20'1211.8
2014-Jul-17 22:31N 60°06' E 025°35'1212.1
2014-Jul-17 21:33N 60°17' E 025°33'1 1.2
2014-Jul-17 20:24N 60°19' E 025°33'16 0.6
2014-Jul-16 16:20N 60°03' E 025°34'55 6.2
2014-Jul-16 07:27N 59°39' E 023°55'1112.2
2014-Jul-16 06:33N 59°36' E 023°35'1312.3
2014-Jul-16 05:31N 59°32' E 023°10'10 0.3
2014-Jul-14 22:33N 59°37' E 022°54'1313.1
2014-Jul-14 21:33N 59°39' E 023°20'1313.4
2014-Jul-14 20:33N 59°42' E 023°46'1313.3
2014-Jul-14 19:33N 59°46' E 024°11'4013.5
2014-Jul-14 16:33N 59°58' E 025°28'12 0.7
2014-Jul-13 22:28N 60°10' E 025°36'5711.5
2014-Jul-13 17:30N 59°40' E 023°59'1313.4
2014-Jul-13 16:33N 59°36' E 023°35'  
Track history (hours):
 
Tides and Currents Weather Stations Pressure Air Temp Water Temp Dewpoint Dewpoint Depression Visibility Wind Speed Wind Dir Waves Ship Positions

Suula

Last reported at 2014-Jul-22 04:28 UTC. Time now 2014-Jul-22 15:27 UTC.
Position N 60°18' E 025°33'.

Length 140 m; draft 6.5 m.

Type: Tanker. MMSI: 230956996.

Date/timePositionNaut miles runAvg speedWind from/ knotsBaromVisibWave heightAir tempDewpointWater temp
2014-Jul-22 04:28N 60°18' E 025°33'0 0.0
2014-Jul-22 03:34N 60°18' E 025°33'0 0.0
2014-Jul-22 02:30N 60°18' E 025°33'0 0.0
2014-Jul-22 01:30N 60°18' E 025°33'0 0.2
2014-Jul-22 00:33N 60°18' E 025°34'1110.5
2014-Jul-21 23:33N 60°08' E 025°35'39 5.3
2014-Jul-21 16:13N 59°45' E 024°32'1011.3
2014-Jul-21 15:23N 59°42' E 024°14'1011.3
2014-Jul-21 14:29N 59°40' E 023°55'1010.7
2014-Jul-21 13:32N 59°37' E 023°36'1210.7
2014-Jul-21 12:24N 59°33' E 023°13'910.7
2014-Jul-21 11:33N 59°30' E 022°56'1111.0
2014-Jul-21 10:34N 59°26' E 022°35'1211.4
2014-Jul-21 09:32N 59°21' E 022°15'1010.5
2014-Jul-21 08:33N 59°18' E 021°55'1212.0
2014-Jul-21 07:34N 59°15' E 021°33'1212.1
2014-Jul-21 06:33N 59°11' E 021°10'  
2014-Jul-18 05:29N 59°34' E 022°48'1313.6
2014-Jul-18 04:31N 59°38' E 023°12'1313.5
2014-Jul-18 03:33N 59°41' E 023°37'1413.4
2014-Jul-18 02:33N 59°45' E 024°03'2713.5
2014-Jul-18 00:33N 59°51' E 024°55'1313.3
2014-Jul-17 23:33N 59°56' E 025°20'1211.8
2014-Jul-17 22:31N 60°06' E 025°35'1212.1
2014-Jul-17 21:33N 60°17' E 025°33'1 1.2
2014-Jul-17 20:24N 60°19' E 025°33'16 0.6
2014-Jul-16 16:20N 60°03' E 025°34'55 6.2
2014-Jul-16 07:27N 59°39' E 023°55'1112.2
2014-Jul-16 06:33N 59°36' E 023°35'1312.3
2014-Jul-16 05:31N 59°32' E 023°10'10 0.3
2014-Jul-14 22:33N 59°37' E 022°54'1313.1
2014-Jul-14 21:33N 59°39' E 023°20'1313.4
2014-Jul-14 20:33N 59°42' E 023°46'1313.3
2014-Jul-14 19:33N 59°46' E 024°11'4013.5
2014-Jul-14 16:33N 59°58' E 025°28'12 0.7
2014-Jul-13 22:28N 60°10' E 025°36'5711.5
2014-Jul-13 17:30N 59°40' E 023°59'1313.4
2014-Jul-13 16:33N 59°36' E 023°35'  

Dump ship's entire track history